TimeEDT,TemperatureF,Dew PointF,Humidity,Sea Level PressureIn,VisibilityMPH,Wind Direction,Wind SpeedMPH,Gust SpeedMPH,PrecipitationIn,Events,Conditions,WindDirDegrees,DateUTC
12:52 AM,73.0,70.0,90,30.12,10.0,Calm,Calm,-,0.00,Rain,Light Rain,0,2012-10-04 04:52:00
1:52 AM,72.0,69.1,91,30.12,10.0,Calm,Calm,-,0.00,,Overcast,0,2012-10-04 05:52:00
2:52 AM,73.0,69.1,87,30.11,10.0,Calm,Calm,-,N/A,,Overcast,0,2012-10-04 06:52:00
3:52 AM,71.1,68.0,90,30.12,10.0,Calm,Calm,-,N/A,,Overcast,0,2012-10-04 07:52:00
4:52 AM,73.0,69.1,87,30.12,10.0,Calm,Calm,-,N/A,,Overcast,0,2012-10-04 08:52:00
5:52 AM,73.0,70.0,90,30.12,10.0,Calm,Calm,-,0.00,,Overcast,0,2012-10-04 09:52:00
6:04 AM,73.4,69.8,88,30.12,10.0,SSW,4.6,-,0.00,Rain,Light Rain,210,2012-10-04 10:04:00
6:52 AM,72.0,70.0,93,30.12,7.0,SSE,3.5,-,0.01,Rain,Light Rain,160,2012-10-04 10:52:00
7:52 AM,73.0,70.0,90,30.14,6.0,SSW,3.5,-,0.00,,Overcast,200,2012-10-04 11:52:00
8:52 AM,73.0,70.0,90,30.13,8.0,Calm,Calm,-,N/A,,Overcast,0,2012-10-04 12:52:00
9:44 AM,73.4,69.8,88,30.16,9.0,West,11.5,-,0.00,,Mostly Cloudy,260,2012-10-04 13:44:00
9:52 AM,73.9,53.6,49,30.16,9.0,WSW,8.1,-,0.00,,Overcast,240,2012-10-04 13:52:00
10:52 AM,75.9,70.0,82,30.15,10.0,WSW,5.8,-,N/A,,Overcast,250,2012-10-04 14:52:00
11:52 AM,78.1,68.0,71,30.14,10.0,WSW,4.6,-,N/A,,Overcast,250,2012-10-04 15:52:00
12:52 PM,80.1,63.0,56,30.12,10.0,WNW,8.1,-,N/A,,Overcast,290,2012-10-04 16:52:00
1:52 PM,80.1,64.9,60,30.11,10.0,NW,13.8,-,N/A,,Overcast,310,2012-10-04 17:52:00
2:52 PM,79.0,64.0,60,30.10,10.0,NW,10.4,-,N/A,,Mostly Cloudy,310,2012-10-04 18:52:00
3:52 PM,80.1,62.1,54,30.10,10.0,NNW,11.5,-,N/A,,Mostly Cloudy,330,2012-10-04 19:52:00
4:52 PM,79.0,61.0,54,30.10,10.0,NNW,11.5,-,N/A,,Mostly Cloudy,340,2012-10-04 20:52:00
5:52 PM,79.0,59.0,50,30.11,10.0,NNW,9.2,-,N/A,,Scattered Clouds,330,2012-10-04 21:52:00
6:52 PM,75.9,59.0,56,30.11,10.0,NNW,4.6,-,N/A,,Scattered Clouds,340,2012-10-04 22:52:00
7:52 PM,75.9,59.0,56,30.11,10.0,WNW,4.6,-,N/A,,Partly Cloudy,290,2012-10-04 23:52:00
8:52 PM,73.4,60.8,65,30.12,10.0,WNW,4.6,-,N/A,,Clear,290,2012-10-05 00:52:00
9:52 PM,71.1,60.1,68,30.13,10.0,Calm,Calm,-,N/A,,Clear,0,2012-10-05 01:52:00
10:52 PM,73.0,52.0,48,30.14,10.0,WNW,5.8,-,N/A,,Clear,300,2012-10-05 02:52:00
11:52 PM,70.0,53.1,55,30.14,10.0,West,3.5,-,N/A,,Clear,280,2012-10-05 03:52:00